Time;durP1;ratioP1;P1;durP2;ratioP2;P2;SDS_P1;SDS_P2;PMS_P1;PMS_P2;Temp;Humidity;BMP_temperature;BMP_pressure;BME280_temperature;BME280_humidity;BME280_pressure;Samples;Min_cycle;Max_cycle;Signal;HPM_P1;HPM_P2
2021/09/19 00:01:18;;;;;;;8.65;6.22;;;8.20;99.90;;;;;;5009120;28;20029;-93
2021/09/19 00:03:45;;;;;;;11.93;6.78;;;8.20;99.90;;;;;;4996243;28;20030;-91
2021/09/19 00:06:10;;;;;;;8.80;6.38;;;8.30;99.90;;;;;;5014640;28;20022;-92
2021/09/19 00:08:36;;;;;;;13.25;7.43;;;8.20;99.90;;;;;;5012917;28;20045;-92
2021/09/19 00:11:02;;;;;;;14.88;6.30;;;8.20;99.90;;;;;;5012737;28;20022;-93
2021/09/19 00:13:28;;;;;;;10.20;6.50;;;8.20;99.90;;;;;;5011994;28;20026;-92
2021/09/19 00:15:54;;;;;;;9.95;6.00;;;8.20;99.90;;;;;;5012810;28;20403;-90
2021/09/19 00:18:19;;;;;;;11.02;6.47;;;8.20;99.90;;;;;;5009959;28;20490;-93
2021/09/19 00:20:46;;;;;;;9.98;6.45;;;8.20;99.90;;;;;;5012634;28;20076;-92
2021/09/19 00:23:12;;;;;;;12.23;5.90;;;8.20;99.90;;;;;;5011107;28;21582;-93
2021/09/19 00:25:38;;;;;;;8.18;5.90;;;8.20;99.90;;;;;;5013639;28;20026;-95
2021/09/19 00:28:05;;;;;;;10.68;6.82;;;8.20;99.90;;;;;;5013029;28;20543;-93
2021/09/19 00:30:31;;;;;;;10.15;5.63;;;8.20;99.90;;;;;;5012734;28;20500;-92
2021/09/19 00:32:58;;;;;;;7.97;5.22;;;8.30;99.90;;;;;;5013048;28;20537;-92
2021/09/19 00:35:25;;;;;;;8.77;6.10;;;8.20;99.90;;;;;;5011804;28;20407;-91
2021/09/19 00:37:50;;;;;;;13.93;6.13;;;8.20;99.90;;;;;;5012429;28;20602;-91
2021/09/19 00:40:16;;;;;;;10.10;5.53;;;8.20;99.90;;;;;;5009335;28;20030;-92
2021/09/19 00:42:42;;;;;;;8.13;5.85;;;8.20;99.90;;;;;;5006634;28;20026;-92
2021/09/19 00:45:14;;;;;;;8.70;5.38;;;8.20;99.90;;;;;;5012391;28;20396;-92
2021/09/19 00:47:41;;;;;;;7.55;5.43;;;8.20;99.90;;;;;;5007194;28;20518;-93
2021/09/19 00:50:10;;;;;;;10.13;6.07;;;8.20;99.90;;;;;;5009819;28;20053;-91
2021/09/19 00:52:40;;;;;;;7.30;5.20;;;8.20;99.90;;;;;;5009366;28;20109;-93
2021/09/19 00:55:08;;;;;;;9.03;5.27;;;8.20;99.90;;;;;;5012366;28;20029;-93
2021/09/19 00:57:46;;;;;;;11.05;5.10;;;8.20;99.90;;;;;;5013501;28;20104;-90
2021/09/19 01:00:15;;;;;;;8.65;5.03;;;8.20;99.90;;;;;;4996272;28;20385;-93
2021/09/19 01:02:41;;;;;;;12.32;5.07;;;8.20;99.90;;;;;;4992811;28;20128;-92
2021/09/19 01:05:08;;;;;;;7.93;4.72;;;8.20;99.90;;;;;;5010668;28;20038;-93
2021/09/19 01:07:35;;;;;;;11.25;5.15;;;8.20;99.90;;;;;;5011433;28;20068;-93
2021/09/19 01:10:01;;;;;;;8.00;5.00;;;8.20;99.90;;;;;;5008985;28;20038;-93
2021/09/19 01:12:27;;;;;;;9.20;5.30;;;8.20;99.90;;;;;;5000817;28;20480;-92
2021/09/19 01:14:53;;;;;;;8.90;5.22;;;8.20;99.90;;;;;;5011136;28;20052;-93
2021/09/19 01:17:20;;;;;;;9.80;5.22;;;8.20;99.90;;;;;;5010759;28;20022;-93
2021/09/19 01:19:47;;;;;;;11.95;5.05;;;8.20;99.90;;;;;;5001102;28;20503;-92
2021/09/19 01:22:14;;;;;;;9.18;5.18;;;8.20;99.90;;;;;;5006648;28;20558;-91
2021/09/19 01:24:41;;;;;;;8.70;5.45;;;8.20;99.90;;;;;;4995992;28;20053;-91
2021/09/19 01:27:07;;;;;;;7.70;5.50;;;8.20;99.90;;;;;;4996577;28;20044;-93
2021/09/19 01:29:33;;;;;;;10.23;5.82;;;8.20;99.90;;;;;;5005871;28;20022;-93
2021/09/19 01:32:00;;;;;;;9.20;5.88;;;8.20;99.90;;;;;;5010235;28;20075;-94
2021/09/19 01:34:26;;;;;;;9.40;5.60;;;8.20;99.90;;;;;;5011486;28;20416;-92
2021/09/19 01:36:52;;;;;;;14.25;5.40;;;8.20;99.90;;;;;;5024521;28;20038;-92
2021/09/19 01:39:19;;;;;;;7.38;4.93;;;8.20;99.90;;;;;;5018303;28;20546;-93
2021/09/19 01:41:47;;;;;;;9.73;5.80;;;8.20;99.90;;;;;;5005674;28;20033;-93
2021/09/19 01:44:14;;;;;;;10.73;5.55;;;8.20;99.90;;;;;;5010125;28;20065;-93
2021/09/19 01:46:40;;;;;;;8.60;6.10;;;8.20;99.90;;;;;;5009797;28;20101;-93
2021/09/19 01:49:08;;;;;;;7.45;4.75;;;8.20;99.90;;;;;;4993941;28;20030;-93
2021/09/19 01:51:33;;;;;;;8.48;4.93;;;8.20;99.90;;;;;;5008448;28;20018;-92
2021/09/19 01:53:59;;;;;;;7.13;4.38;;;8.20;99.90;;;;;;5005171;28;20124;-92
2021/09/19 01:56:25;;;;;;;6.93;5.25;;;8.20;99.90;;;;;;5007863;28;20026;-93
2021/09/19 01:58:53;;;;;;;9.90;5.28;;;8.20;99.90;;;;;;5012658;28;20029;-93
2021/09/19 02:01:22;;;;;;;7.47;4.90;;;8.20;99.90;;;;;;5009700;28;20476;-93
2021/09/19 02:03:51;;;;;;;7.07;4.60;;;8.30;99.90;;;;;;5011648;28;20878;-94
2021/09/19 02:06:17;;;;;;;6.90;5.07;;;8.20;99.90;;;;;;5013504;28;20475;-93
2021/09/19 02:08:43;;;;;;;9.10;4.60;;;8.20;99.90;;;;;;5012375;28;20060;-94
2021/09/19 02:11:11;;;;;;;9.57;5.35;;;8.20;99.90;;;;;;5009641;28;20092;-93
2021/09/19 02:13:38;;;;;;;11.02;5.03;;;8.20;99.90;;;;;;5012782;28;20030;-93
2021/09/19 02:16:06;;;;;;;8.35;4.72;;;8.20;99.90;;;;;;5012064;28;20404;-93
2021/09/19 02:18:32;;;;;;;6.90;4.80;;;8.20;99.90;;;;;;5011998;28;20030;-93
2021/09/19 02:20:59;;;;;;;6.20;4.35;;;8.20;99.90;;;;;;5012218;28;20121;-93
2021/09/19 02:23:25;;;;;;;10.50;4.85;;;8.20;99.90;;;;;;5007804;28;20037;-93
2021/09/19 02:25:51;;;;;;;8.75;4.68;;;8.20;99.90;;;;;;5015090;28;20132;-93
2021/09/19 02:28:18;;;;;;;8.50;5.57;;;8.20;99.90;;;;;;5013366;28;20428;-94
2021/09/19 02:30:45;;;;;;;5.80;4.88;;;8.20;99.90;;;;;;5011970;28;20021;-92
2021/09/19 02:33:11;;;;;;;8.00;5.10;;;8.20;99.90;;;;;;5010597;28;20463;-93
2021/09/19 02:35:37;;;;;;;7.03;4.90;;;8.30;99.90;;;;;;5011819;28;20030;-94
2021/09/19 02:38:02;;;;;;;7.25;5.32;;;8.20;99.90;;;;;;5012754;28;20056;-92
2021/09/19 02:40:28;;;;;;;5.68;5.00;;;8.20;99.90;;;;;;5013787;28;20067;-93
2021/09/19 02:42:54;;;;;;;8.02;5.05;;;8.20;99.90;;;;;;5012842;28;20357;-93
2021/09/19 02:45:21;;;;;;;10.45;4.90;;;8.20;99.90;;;;;;5009498;28;20380;-93
2021/09/19 02:47:46;;;;;;;12.60;5.65;;;8.20;99.90;;;;;;5012435;28;20120;-93
2021/09/19 02:50:16;;;;;;;8.32;5.65;;;8.30;99.90;;;;;;5014653;28;20090;-92
2021/09/19 02:52:42;;;;;;;7.38;5.00;;;8.30;99.90;;;;;;5014596;28;20021;-93
2021/09/19 02:55:09;;;;;;;16.80;5.28;;;8.30;99.90;;;;;;5011392;28;20038;-93
2021/09/19 02:57:35;;;;;;;9.52;5.25;;;8.30;99.90;;;;;;5011731;28;20112;-94
2021/09/19 03:00:01;;;;;;;10.52;5.57;;;8.30;99.90;;;;;;5015707;28;20076;-94
2021/09/19 03:02:26;;;;;;;8.82;5.20;;;8.30;99.90;;;;;;5013650;28;20028;-93
2021/09/19 03:04:52;;;;;;;7.22;4.38;;;8.30;99.90;;;;;;5014238;28;20033;-93
2021/09/19 03:07:18;;;;;;;7.55;5.25;;;8.30;99.90;;;;;;5010852;28;20369;-93
2021/09/19 03:09:43;;;;;;;10.20;5.40;;;8.30;99.90;;;;;;5010226;28;20627;-92
2021/09/19 03:12:09;;;;;;;7.95;5.00;;;8.40;99.90;;;;;;4999443;28;20026;-93
2021/09/19 03:14:34;;;;;;;7.70;4.80;;;8.30;99.90;;;;;;5015626;28;20435;-93
2021/09/19 03:17:00;;;;;;;7.57;5.07;;;8.40;99.90;;;;;;5015298;28;20056;-93
2021/09/19 03:19:26;;;;;;;11.25;4.68;;;8.40;99.90;;;;;;5011060;28;20030;-92
2021/09/19 03:21:52;;;;;;;9.77;5.53;;;8.40;99.90;;;;;;5015281;28;20026;-94
2021/09/19 03:24:17;;;;;;;9.02;4.82;;;8.30;99.90;;;;;;5014274;28;20105;-93
2021/09/19 03:26:43;;;;;;;9.90;4.95;;;8.40;99.90;;;;;;5014646;28;20014;-94
2021/09/19 03:29:09;;;;;;;8.18;5.50;;;8.40;99.90;;;;;;5003214;28;20102;-93
2021/09/19 03:31:34;;;;;;;6.85;4.50;;;8.40;99.90;;;;;;5012867;28;20025;-95
2021/09/19 03:34:00;;;;;;;11.50;4.90;;;8.30;99.90;;;;;;5014227;28;20071;-93
2021/09/19 03:36:26;;;;;;;6.50;4.47;;;8.30;99.90;;;;;;5015042;28;20033;-93
2021/09/19 03:38:52;;;;;;;7.90;5.70;;;8.30;99.90;;;;;;5015463;28;20038;-94
2021/09/19 03:41:18;;;;;;;10.10;6.03;;;8.40;99.90;;;;;;5009453;28;20029;-94
2021/09/19 03:43:44;;;;;;;7.68;5.82;;;8.40;99.90;;;;;;5014498;28;20052;-95
2021/09/19 03:46:09;;;;;;;10.52;4.53;;;8.30;99.90;;;;;;5008948;28;20021;-94
2021/09/19 03:48:35;;;;;;;9.35;5.10;;;8.30;99.90;;;;;;5014151;28;20505;-93
2021/09/19 03:51:02;;;;;;;9.32;5.47;;;8.30;99.90;;;;;;5013147;28;20030;-93
2021/09/19 03:53:27;;;;;;;8.75;5.28;;;8.30;99.90;;;;;;5014538;28;20058;-93
2021/09/19 03:55:53;;;;;;;8.63;4.88;;;8.40;99.90;;;;;;5013795;28;20022;-93
2021/09/19 03:58:19;;;;;;;8.27;4.63;;;8.30;99.90;;;;;;5000695;28;20045;-95
2021/09/19 04:00:45;;;;;;;6.40;4.15;;;8.30;99.90;;;;;;4998686;28;20030;-95
2021/09/19 04:03:10;;;;;;;7.45;3.90;;;8.30;99.90;;;;;;5015214;28;20044;-94
2021/09/19 04:05:37;;;;;;;8.50;4.70;;;8.30;99.90;;;;;;5014078;28;20025;-94
2021/09/19 04:08:04;;;;;;;8.73;4.50;;;8.40;99.90;;;;;;5014800;28;20068;-94
2021/09/19 04:10:30;;;;;;;13.05;4.70;;;8.40;99.90;;;;;;5014646;28;20041;-94
2021/09/19 04:12:55;;;;;;;8.27;4.30;;;8.40;99.90;;;;;;5011070;28;20033;-94
2021/09/19 04:15:21;;;;;;;6.13;4.45;;;8.40;99.90;;;;;;5013625;28;20022;-96
2021/09/19 04:17:47;;;;;;;9.93;5.07;;;8.40;99.90;;;;;;4998420;28;20049;-93
2021/09/19 04:20:13;;;;;;;12.25;4.85;;;8.40;99.90;;;;;;5006571;28;20487;-95
2021/09/19 04:22:40;;;;;;;8.07;4.43;;;8.40;99.90;;;;;;5013878;28;20578;-94
2021/09/19 04:25:07;;;;;;;5.55;4.50;;;8.40;99.90;;;;;;5001467;28;20554;-93
2021/09/19 04:27:33;;;;;;;9.65;5.00;;;8.40;99.90;;;;;;5014673;28;20022;-95
2021/09/19 04:29:58;;;;;;;4.65;4.05;;;8.40;99.90;;;;;;5009760;28;20033;-93
2021/09/19 04:32:24;;;;;;;10.02;4.20;;;8.40;99.90;;;;;;5012858;28;20017;-94
2021/09/19 04:34:50;;;;;;;9.82;4.32;;;8.40;99.90;;;;;;5017205;28;20045;-93
2021/09/19 04:37:17;;;;;;;6.00;4.45;;;8.40;99.90;;;;;;5016545;28;20040;-95
2021/09/19 04:39:44;;;;;;;5.60;4.05;;;8.40;99.90;;;;;;5018663;28;20061;-93
2021/09/19 04:42:10;;;;;;;12.23;4.85;;;8.40;99.90;;;;;;5030876;28;20089;-92
2021/09/19 04:44:37;;;;;;;7.30;4.45;;;8.50;99.90;;;;;;5012056;28;20045;-93
2021/09/19 04:47:03;;;;;;;9.13;3.75;;;8.40;99.90;;;;;;5002985;28;20027;-94
2021/09/19 04:49:28;;;;;;;6.88;4.45;;;8.40;99.90;;;;;;5009648;28;20029;-95
2021/09/19 04:51:54;;;;;;;9.20;3.90;;;8.50;99.90;;;;;;5008424;28;21740;-94
2021/09/19 04:54:20;;;;;;;7.45;3.95;;;8.50;99.90;;;;;;5012946;28;20054;-92
2021/09/19 04:56:45;;;;;;;5.60;3.70;;;8.50;99.90;;;;;;5009233;28;20033;-94
2021/09/19 04:59:11;;;;;;;6.25;3.63;;;8.50;99.90;;;;;;5010593;28;20025;-94
2021/09/19 05:01:37;;;;;;;4.13;3.42;;;8.50;99.90;;;;;;5013239;28;20030;-95
2021/09/19 05:04:02;;;;;;;5.03;3.45;;;8.50;99.90;;;;;;5009349;28;20542;-94
2021/09/19 05:06:28;;;;;;;11.35;4.15;;;8.50;99.90;;;;;;5012976;28;20349;-94
2021/09/19 05:08:54;;;;;;;6.47;3.72;;;8.50;99.90;;;;;;5013473;28;20018;-95
2021/09/19 05:11:19;;;;;;;9.95;4.00;;;8.50;99.90;;;;;;5012831;28;20057;-93
2021/09/19 05:13:45;;;;;;;9.43;3.63;;;8.50;99.90;;;;;;5014061;28;20018;-95
2021/09/19 05:16:11;;;;;;;9.15;3.92;;;8.50;99.90;;;;;;5004454;28;20538;-94
2021/09/19 05:18:37;;;;;;;5.55;3.45;;;8.60;99.90;;;;;;5007127;28;20096;-92
2021/09/19 05:21:02;;;;;;;5.60;3.70;;;8.60;99.90;;;;;;5012566;28;20017;-94
2021/09/19 05:23:29;;;;;;;4.97;3.33;;;8.70;99.90;;;;;;5012309;28;20026;-94
2021/09/19 05:25:55;;;;;;;8.60;3.28;;;8.70;99.90;;;;;;5012574;28;20036;-95
2021/09/19 05:28:21;;;;;;;7.22;3.42;;;8.70;99.90;;;;;;5011836;28;20424;-92
2021/09/19 05:30:47;;;;;;;5.60;3.40;;;8.70;99.90;;;;;;5011302;28;20502;-93
2021/09/19 05:33:12;;;;;;;6.80;3.33;;;8.70;99.90;;;;;;5006383;28;20030;-94
2021/09/19 05:35:38;;;;;;;8.80;3.92;;;8.70;99.90;;;;;;5010191;28;20034;-95
2021/09/19 05:38:07;;;;;;;7.18;4.05;;;8.80;99.90;;;;;;5004040;28;20101;-95
2021/09/19 05:40:34;;;;;;;4.90;3.42;;;8.80;99.90;;;;;;5001920;28;20036;-91
2021/09/19 05:43:01;;;;;;;7.18;3.72;;;8.80;99.90;;;;;;5003427;28;20037;-95
2021/09/19 05:45:29;;;;;;;6.32;3.42;;;8.80;99.90;;;;;;5013491;28;20072;-95
2021/09/19 05:47:55;;;;;;;8.40;3.25;;;8.80;99.90;;;;;;5012432;28;20453;-94
2021/09/19 05:50:22;;;;;;;9.23;3.70;;;8.90;99.90;;;;;;4999320;28;20487;-95
2021/09/19 05:52:48;;;;;;;6.07;3.30;;;8.90;99.90;;;;;;5008955;28;20029;-94
2021/09/19 05:55:14;;;;;;;6.55;3.35;;;8.90;99.90;;;;;;5012471;28;20033;-93
2021/09/19 05:57:40;;;;;;;4.85;3.13;;;9.00;99.90;;;;;;5016041;28;20388;-92
2021/09/19 06:00:07;;;;;;;5.30;3.33;;;8.90;99.90;;;;;;5016062;28;20030;-94
2021/09/19 06:02:34;;;;;;;10.48;3.28;;;9.00;99.90;;;;;;5009211;28;20022;-95
2021/09/19 06:05:00;;;;;;;4.60;3.00;;;9.00;99.90;;;;;;5016998;28;20053;-94
2021/09/19 06:07:26;;;;;;;3.80;2.83;;;9.00;99.90;;;;;;5002869;28;20022;-95
2021/09/19 06:09:52;;;;;;;6.25;2.97;;;9.00;99.90;;;;;;5015879;28;20348;-94
2021/09/19 06:12:18;;;;;;;6.05;3.33;;;9.00;99.90;;;;;;5015653;28;20022;-95
2021/09/19 06:14:44;;;;;;;4.43;2.83;;;9.00;99.90;;;;;;5016231;28;20026;-93
2021/09/19 06:17:10;;;;;;;13.23;2.97;;;9.10;99.90;;;;;;5015248;28;20034;-95
2021/09/19 06:19:36;;;;;;;8.13;3.30;;;9.10;99.90;;;;;;5015438;28;20032;-94
2021/09/19 06:22:03;;;;;;;8.05;3.10;;;9.10;99.90;;;;;;5015814;28;20030;-93
2021/09/19 06:24:30;;;;;;;5.30;2.60;;;9.10;99.90;;;;;;5004384;28;20492;-94
2021/09/19 06:27:00;;;;;;;4.93;2.70;;;9.20;99.90;;;;;;5017272;28;20054;-94
2021/09/19 06:29:26;;;;;;;9.80;2.78;;;9.20;99.90;;;;;;5013317;28;20074;-93
2021/09/19 06:31:52;;;;;;;7.22;3.30;;;9.20;99.90;;;;;;5011692;28;20026;-94
2021/09/19 06:34:18;;;;;;;5.18;3.38;;;9.20;99.90;;;;;;5015116;28;20041;-93
2021/09/19 06:36:44;;;;;;;7.40;3.45;;;9.20;99.90;;;;;;5004020;28;20046;-94
2021/09/19 06:39:10;;;;;;;5.95;3.10;;;9.30;99.90;;;;;;5014996;28;20018;-94
2021/09/19 06:41:36;;;;;;;3.58;2.42;;;9.30;99.90;;;;;;5007958;28;20388;-94
2021/09/19 06:44:02;;;;;;;7.47;2.67;;;9.30;99.90;;;;;;5000116;28;20492;-95
2021/09/19 06:46:31;;;;;;;6.18;2.90;;;9.30;99.90;;;;;;5014531;28;20587;-93
2021/09/19 06:48:57;;;;;;;5.07;2.63;;;9.40;99.90;;;;;;5006782;28;20118;-95
2021/09/19 06:51:24;;;;;;;7.65;3.55;;;9.40;99.90;;;;;;5013525;28;20123;-94
2021/09/19 06:53:50;;;;;;;4.80;3.13;;;9.40;99.90;;;;;;5010547;28;20129;-92
2021/09/19 06:56:16;;;;;;;5.85;3.20;;;9.40;99.90;;;;;;4993007;28;20381;-94
2021/09/19 06:58:41;;;;;;;3.42;2.55;;;9.40;99.90;;;;;;5014424;28;20064;-95
2021/09/19 07:01:08;;;;;;;5.10;2.78;;;9.50;99.90;;;;;;5007581;28;20376;-94
2021/09/19 07:03:34;;;;;;;6.28;3.00;;;9.50;99.90;;;;;;5002363;28;20042;-92
2021/09/19 07:06:00;;;;;;;6.78;2.88;;;9.50;99.90;;;;;;5011397;28;20050;-93
2021/09/19 07:08:25;;;;;;;6.38;2.35;;;9.50;99.90;;;;;;5012133;28;20060;-93
2021/09/19 07:10:51;;;;;;;3.33;2.50;;;9.50;99.90;;;;;;5012617;28;20491;-92
2021/09/19 07:13:17;;;;;;;5.05;2.85;;;9.50;99.90;;;;;;5012128;28;20206;-92
2021/09/19 07:15:43;;;;;;;12.10;2.80;;;9.60;99.90;;;;;;5014837;28;20121;-92
2021/09/19 07:18:12;;;;;;;6.95;2.80;;;9.60;99.90;;;;;;5012580;28;20038;-92
2021/09/19 07:20:38;;;;;;;9.40;2.97;;;9.60;99.90;;;;;;5012797;28;20203;-93
2021/09/19 07:23:03;;;;;;;4.32;2.42;;;9.60;99.90;;;;;;5012919;28;20050;-92
2021/09/19 07:25:29;;;;;;;5.72;3.05;;;9.60;99.90;;;;;;5012330;28;20528;-92
2021/09/19 07:27:55;;;;;;;4.13;2.78;;;9.60;99.90;;;;;;5011923;28;20022;-93
2021/09/19 07:30:21;;;;;;;10.55;3.40;;;9.60;99.90;;;;;;5012329;28;20029;-93
2021/09/19 07:32:47;;;;;;;5.38;2.67;;;9.60;99.90;;;;;;5011926;28;20026;-93
2021/09/19 07:35:13;;;;;;;6.88;3.10;;;9.50;99.90;;;;;;5011359;28;20440;-91
2021/09/19 07:37:40;;;;;;;4.10;2.80;;;9.50;99.90;;;;;;5013116;28;20029;-93
2021/09/19 07:40:06;;;;;;;3.38;2.25;;;9.50;99.90;;;;;;5010445;28;20038;-91
2021/09/19 07:42:32;;;;;;;5.55;2.83;;;9.60;99.90;;;;;;5007924;28;20029;-92
2021/09/19 07:44:58;;;;;;;5.40;2.53;;;9.60;99.90;;;;;;5015669;28;20137;-92
2021/09/19 07:47:26;;;;;;;6.22;2.47;;;9.60;99.90;;;;;;5007833;28;20037;-94
2021/09/19 07:49:52;;;;;;;3.63;2.67;;;9.60;99.90;;;;;;5011607;28;20030;-93
2021/09/19 07:52:18;;;;;;;7.70;2.40;;;9.60;99.90;;;;;;5011286;28;20032;-93
2021/09/19 07:54:44;;;;;;;4.30;2.63;;;9.60;99.90;;;;;;5005840;28;20050;-94
2021/09/19 07:57:10;;;;;;;4.50;2.95;;;9.70;99.90;;;;;;5011273;28;20037;-93
2021/09/19 07:59:37;;;;;;;7.22;2.72;;;9.80;99.90;;;;;;5012776;28;20102;-92
2021/09/19 08:02:03;;;;;;;7.13;3.47;;;9.70;99.90;;;;;;5009351;28;20033;-94
2021/09/19 08:04:28;;;;;;;5.10;2.50;;;9.80;99.90;;;;;;5010232;28;20030;-93
2021/09/19 08:06:54;;;;;;;4.50;2.88;;;9.80;99.90;;;;;;5003313;28;20464;-94
2021/09/19 08:09:20;;;;;;;6.32;2.63;;;9.80;99.90;;;;;;5009728;28;20113;-92
2021/09/19 08:11:46;;;;;;;4.82;2.53;;;9.90;99.90;;;;;;5008595;28;20026;-94
2021/09/19 08:14:11;;;;;;;8.77;2.53;;;9.90;99.90;;;;;;5012350;28;20042;-94
2021/09/19 08:16:40;;;;;;;8.30;3.08;;;9.90;99.90;;;;;;5013311;28;20074;-93
2021/09/19 08:19:08;;;;;;;7.75;2.63;;;9.90;99.90;;;;;;5010106;28;20026;-93
2021/09/19 08:21:36;;;;;;;6.18;3.42;;;9.90;99.90;;;;;;5013365;28;20520;-93
2021/09/19 08:24:03;;;;;;;4.78;3.10;;;9.90;99.90;;;;;;5005922;28;20037;-93
2021/09/19 08:26:29;;;;;;;4.90;2.97;;;9.80;99.90;;;;;;5007723;28;20113;-92
2021/09/19 08:28:55;;;;;;;4.75;3.45;;;9.80;99.90;;;;;;5010100;28;20026;-93
2021/09/19 08:31:20;;;;;;;5.55;2.80;;;9.80;99.90;;;;;;5008885;28;20364;-93
2021/09/19 08:33:46;;;;;;;27.77;19.95;;;9.80;99.90;;;;;;5008629;28;20029;-93
2021/09/19 08:36:12;;;;;;;5.97;3.03;;;9.80;99.90;;;;;;5012449;28;20025;-91
2021/09/19 08:38:38;;;;;;;4.43;2.67;;;9.80;99.90;;;;;;5007721;28;20038;-93
2021/09/19 08:41:04;;;;;;;4.22;2.03;;;9.90;99.90;;;;;;5010657;28;20026;-94
2021/09/19 08:43:30;;;;;;;10.18;2.70;;;9.80;99.90;;;;;;5008728;28;20034;-93
2021/09/19 08:45:56;;;;;;;9.55;2.50;;;9.80;99.90;;;;;;5010310;28;20028;-92
2021/09/19 08:48:22;;;;;;;3.75;2.83;;;9.80;99.90;;;;;;5009658;28;20037;-93
2021/09/19 08:50:53;;;;;;;7.50;2.78;;;9.90;99.90;;;;;;4999341;28;20026;-92
2021/09/19 08:53:25;;;;;;;3.83;2.95;;;9.80;99.90;;;;;;5001048;28;20041;-92
2021/09/19 08:55:51;;;;;;;6.43;3.10;;;9.80;99.90;;;;;;5010965;28;20464;-92
2021/09/19 08:58:16;;;;;;;8.38;3.05;;;9.90;99.90;;;;;;5000040;28;20084;-93
2021/09/19 09:00:48;;;;;;;3.67;2.88;;;9.80;99.90;;;;;;5009867;28;20021;-93
2021/09/19 09:03:15;;;;;;;4.85;3.10;;;9.90;99.90;;;;;;5011758;28;20038;-91
2021/09/19 09:05:41;;;;;;;9.15;2.90;;;9.90;99.90;;;;;;5012190;28;20018;-93
2021/09/19 09:08:09;;;;;;;6.47;3.08;;;10.00;99.90;;;;;;5010496;28;20546;-93
2021/09/19 09:10:40;;;;;;;7.25;3.10;;;9.90;99.90;;;;;;5005290;28;20021;-94
2021/09/19 09:13:15;;;;;;;3.65;2.78;;;10.00;99.90;;;;;;5000902;28;20073;-89
2021/09/19 09:15:59;;;;;;;4.50;2.70;;;10.10;99.90;;;;;;5008517;28;20048;-91
2021/09/19 09:18:27;;;;;;;4.03;2.85;;;10.20;99.90;;;;;;5009205;28;20050;-91
2021/09/19 09:21:03;;;;;;;4.47;2.65;;;10.20;99.90;;;;;;5008761;28;20030;-92
2021/09/19 09:23:39;;;;;;;5.15;2.20;;;10.20;99.90;;;;;;5009353;28;20029;-93
2021/09/19 09:26:30;;;;;;;10.35;3.08;;;10.10;99.90;;;;;;5010574;28;20601;-92
2021/09/19 09:29:15;;;;;;;7.18;2.47;;;10.20;99.90;;;;;;4999946;28;20030;-92
2021/09/19 09:31:40;;;;;;;5.40;2.63;;;10.20;99.90;;;;;;5006366;28;20083;-93
2021/09/19 09:34:06;;;;;;;3.80;2.58;;;10.20;99.90;;;;;;5003517;28;20033;-93
2021/09/19 09:36:42;;;;;;;4.22;2.50;;;10.20;99.90;;;;;;5011571;28;20487;-92
2021/09/19 09:39:22;;;;;;;5.32;2.85;;;10.20;99.90;;;;;;5010232;28;20468;-94
2021/09/19 09:41:48;;;;;;;8.43;2.58;;;10.20;99.90;;;;;;5008584;28;20037;-91
2021/09/19 09:44:45;;;;;;;5.88;2.72;;;10.20;99.90;;;;;;5009014;28;20049;-91
2021/09/19 09:47:17;;;;;;;5.25;2.80;;;10.20;99.90;;;;;;4995267;28;20064;-92
2021/09/19 09:49:44;;;;;;;3.83;2.50;;;10.20;99.90;;;;;;5010817;28;20022;-92
2021/09/19 09:52:11;;;;;;;5.10;2.72;;;10.20;99.90;;;;;;4995643;28;20133;-93
2021/09/19 09:54:47;;;;;;;3.83;2.70;;;10.20;99.90;;;;;;5011974;28;20518;-93
2021/09/19 09:57:25;;;;;;;6.35;3.10;;;10.20;99.90;;;;;;5010375;28;20026;-91
2021/09/19 09:59:51;;;;;;;3.95;2.70;;;10.30;99.90;;;;;;5007050;28;20096;-94
2021/09/19 10:02:18;;;;;;;6.45;2.90;;;10.30;99.90;;;;;;5003573;28;20057;-92
2021/09/19 10:04:45;;;;;;;4.70;2.92;;;10.30;99.90;;;;;;5010845;28;20088;-94
2021/09/19 10:07:11;;;;;;;4.43;2.63;;;10.30;99.90;;;;;;5008683;28;20061;-93
2021/09/19 10:09:37;;;;;;;5.60;3.05;;;10.30;99.90;;;;;;5008743;28;20117;-93
2021/09/19 10:12:03;;;;;;;6.97;3.30;;;10.30;99.90;;;;;;5009805;28;20114;-95
2021/09/19 10:14:30;;;;;;;8.52;3.40;;;10.30;99.90;;;;;;5008798;28;20507;-91
2021/09/19 10:16:55;;;;;;;6.47;3.13;;;10.30;99.90;;;;;;4998354;28;20045;-95
2021/09/19 10:19:21;;;;;;;6.35;3.50;;;10.30;99.90;;;;;;5009545;28;20018;-91
2021/09/19 10:21:49;;;;;;;3.55;2.83;;;10.20;99.90;;;;;;5002534;28;20022;-92
2021/09/19 10:24:16;;;;;;;6.93;3.50;;;10.30;99.90;;;;;;5005099;28;20046;-93
2021/09/19 10:26:54;;;;;;;8.77;2.80;;;10.30;99.90;;;;;;5003723;28;20026;-92
2021/09/19 10:29:21;;;;;;;5.50;2.83;;;10.30;99.90;;;;;;4999398;28;20069;-92
2021/09/19 10:31:48;;;;;;;6.30;3.75;;;10.40;99.90;;;;;;4995588;28;20029;-94
2021/09/19 10:34:35;;;;;;;5.03;3.00;;;10.40;99.90;;;;;;5007947;28;20029;-93
2021/09/19 10:37:02;;;;;;;4.70;2.97;;;10.50;99.90;;;;;;5002919;28;20176;-92
2021/09/19 10:39:39;;;;;;;8.38;2.95;;;10.50;99.90;;;;;;5005569;28;20018;-90
2021/09/19 10:42:10;;;;;;;5.72;3.10;;;10.50;99.90;;;;;;5008868;28;20038;-93
2021/09/19 10:44:45;;;;;;;3.67;2.67;;;10.50;99.90;;;;;;5010245;28;20038;-92
2021/09/19 10:47:12;;;;;;;4.20;3.03;;;10.40;99.90;;;;;;5006149;28;20030;-90
2021/09/19 10:49:40;;;;;;;4.88;2.97;;;10.50;99.90;;;;;;5014884;28;20033;-91
2021/09/19 10:52:10;;;;;;;4.63;2.90;;;10.40;99.90;;;;;;5014414;28;20025;-92
2021/09/19 10:54:44;;;;;;;5.18;3.08;;;10.40;99.90;;;;;;5006359;28;20080;-93
2021/09/19 10:57:17;;;;;;;5.45;3.25;;;10.50;99.90;;;;;;5012644;28;20091;-91
2021/09/19 11:00:07;;;;;;;6.55;3.25;;;10.50;99.90;;;;;;5006590;28;20034;-93
2021/09/19 11:02:36;;;;;;;4.45;3.00;;;10.50;99.90;;;;;;5012225;28;20029;-92
2021/09/19 11:05:22;;;;;;;4.07;2.95;;;10.50;99.90;;;;;;5002813;28;20026;-93
2021/09/19 11:07:49;;;;;;;5.90;3.15;;;10.50;99.90;;;;;;5007595;28;20108;-92
2021/09/19 11:10:15;;;;;;;6.80;3.20;;;10.50;99.90;;;;;;5004320;28;20053;-92
2021/09/19 11:12:42;;;;;;;6.10;4.28;;;10.50;99.90;;;;;;5007692;28;20084;-94
2021/09/19 11:15:11;;;;;;;5.13;3.30;;;10.60;99.90;;;;;;5007360;28;20054;-90
2021/09/19 11:17:45;;;;;;;4.38;3.10;;;10.50;99.90;;;;;;5008187;28;20037;-91
2021/09/19 11:20:10;;;;;;;7.50;2.90;;;10.50;99.90;;;;;;5007830;28;20026;-91
2021/09/19 11:22:37;;;;;;;4.03;2.63;;;10.40;99.90;;;;;;5007833;28;20435;-92
2021/09/19 11:25:04;;;;;;;6.10;2.80;;;10.40;99.90;;;;;;5012407;28;20030;-91
2021/09/19 11:27:31;;;;;;;6.13;3.33;;;10.40;99.90;;;;;;5013315;28;20025;-93
2021/09/19 11:29:57;;;;;;;6.13;3.08;;;10.40;99.90;;;;;;4952441;28;20054;-93
2021/09/19 11:32:24;;;;;;;6.03;3.05;;;10.40;99.90;;;;;;5010910;28;20022;-92
2021/09/19 11:34:51;;;;;;;4.05;2.65;;;10.40;99.90;;;;;;5007622;28;20033;-91
2021/09/19 11:37:17;;;;;;;4.95;3.08;;;10.30;99.90;;;;;;5010237;28;20049;-92
2021/09/19 11:39:43;;;;;;;5.00;2.85;;;10.40;99.90;;;;;;5012232;28;20038;-92
2021/09/19 11:42:11;;;;;;;7.05;3.72;;;10.40;99.90;;;;;;5011427;28;20527;-91
2021/09/19 11:44:49;;;;;;;37.40;24.98;;;10.40;99.90;;;;;;5011091;28;20026;-92
2021/09/19 11:47:18;;;;;;;5.28;4.13;;;10.40;99.90;;;;;;5008662;28;20396;-93
2021/09/19 11:49:45;;;;;;;4.75;3.60;;;10.40;99.90;;;;;;5011429;28;20268;-93
2021/09/19 11:52:11;;;;;;;5.07;3.83;;;10.40;99.90;;;;;;5010598;28;20403;-92
2021/09/19 11:54:40;;;;;;;5.22;3.72;;;10.40;99.90;;;;;;5010977;28;20108;-92
2021/09/19 11:57:06;;;;;;;6.75;3.47;;;10.40;99.90;;;;;;5011620;28;20034;-93
2021/09/19 11:59:32;;;;;;;5.60;3.88;;;10.40;99.90;;;;;;5012417;28;20496;-90
2021/09/19 12:01:58;;;;;;;5.53;2.97;;;10.40;99.90;;;;;;5010963;28;20022;-94
2021/09/19 12:04:25;;;;;;;4.85;2.92;;;10.30;99.90;;;;;;5009933;28;20121;-93
2021/09/19 12:06:51;;;;;;;4.47;2.95;;;10.30;99.90;;;;;;5011354;28;20022;-93
2021/09/19 12:09:19;;;;;;;4.30;3.17;;;10.30;99.90;;;;;;5010968;28;20053;-92
2021/09/19 12:11:54;;;;;;;3.97;2.58;;;10.30;99.90;;;;;;5010627;28;20076;-93
2021/09/19 12:14:21;;;;;;;5.07;2.97;;;10.30;99.90;;;;;;5012107;28;20488;-94
2021/09/19 12:17:04;;;;;;;4.18;2.90;;;10.30;99.90;;;;;;5009068;28;20109;-94
2021/09/19 12:19:35;;;;;;;4.47;3.15;;;10.30;99.90;;;;;;5008934;28;20037;-93
2021/09/19 12:22:16;;;;;;;4.88;3.47;;;10.30;99.90;;;;;;5009366;28;20034;-91
2021/09/19 12:24:42;;;;;;;5.50;3.40;;;10.30;99.90;;;;;;5007981;28;20044;-93
2021/09/19 12:27:20;;;;;;;6.63;3.00;;;10.30;99.90;;;;;;5010163;28;20026;-91
2021/09/19 12:29:58;;;;;;;8.90;5.65;;;10.30;99.90;;;;;;5006187;28;20026;-93
2021/09/19 12:32:46;;;;;;;6.38;4.10;;;10.30;99.90;;;;;;5009081;28;20026;-93
2021/09/19 12:35:17;;;;;;;4.80;3.30;;;10.40;99.90;;;;;;5008582;28;20030;-90
2021/09/19 12:37:44;;;;;;;;;;;10.40;99.90;;;;;;5011218;28;20022;-93
2021/09/19 12:40:17;;;;;;;7.45;3.22;;;10.40;99.90;;;;;;5007235;28;19909;-93
2021/09/19 12:42:43;;;;;;;8.63;3.55;;;10.40;99.90;;;;;;5025544;28;20029;-91
2021/09/19 12:45:11;;;;;;;5.88;3.13;;;10.40;99.90;;;;;;5007217;28;20108;-93
2021/09/19 12:47:38;;;;;;;10.75;4.00;;;10.40;99.90;;;;;;5008765;28;20410;-93
2021/09/19 12:50:12;;;;;;;4.40;3.25;;;10.40;99.90;;;;;;5007759;28;20068;-95
2021/09/19 12:52:38;;;;;;;4.32;2.90;;;10.40;99.90;;;;;;5009016;28;20028;-92
2021/09/19 12:55:05;;;;;;;3.55;2.95;;;10.40;99.90;;;;;;5008566;28;20034;-94